createdAt,value
2019-01-25T00:00:25.266Z,0.00
2019-01-25T00:01:25.247Z,0.00
2019-01-25T00:02:25.230Z,0.00
2019-01-25T00:03:25.196Z,0.00
2019-01-25T00:04:25.187Z,0.00
2019-01-25T00:05:25.148Z,0.00
2019-01-25T00:06:25.139Z,0.00
2019-01-25T00:07:25.106Z,0.00
2019-01-25T00:08:25.074Z,0.00
2019-01-25T00:09:25.093Z,0.00
2019-01-25T00:10:25.024Z,0.00
2019-01-25T00:11:25.000Z,0.00
2019-01-25T00:12:25.910Z,0.00
2019-01-25T00:13:24.946Z,0.00
2019-01-25T00:14:24.928Z,0.00
2019-01-25T00:15:24.913Z,0.00
2019-01-25T00:16:24.892Z,0.00
2019-01-25T00:17:25.404Z,0.00
2019-01-25T00:18:24.828Z,0.00
2019-01-25T00:19:24.833Z,0.00
2019-01-25T00:20:24.776Z,0.00
2019-01-25T00:21:24.752Z,0.00
2019-01-25T00:22:24.734Z,0.00
2019-01-25T00:23:24.699Z,0.00
2019-01-25T00:24:24.694Z,0.00
2019-01-25T00:25:24.654Z,0.00
2019-01-25T00:26:24.646Z,0.00
2019-01-25T00:27:24.606Z,0.00
2019-01-25T00:28:24.578Z,0.00
2019-01-25T00:29:24.555Z,0.00
2019-01-25T00:30:24.533Z,0.00
2019-01-25T00:31:24.533Z,0.00
2019-01-25T00:32:24.481Z,0.00
2019-01-25T00:33:24.455Z,0.00
2019-01-25T00:34:24.440Z,0.00
2019-01-25T00:35:24.409Z,0.00
2019-01-25T00:36:24.478Z,0.00
2019-01-25T00:37:24.376Z,0.00
2019-01-25T00:38:24.333Z,0.00
2019-01-25T00:39:24.310Z,0.00
2019-01-25T00:40:24.285Z,0.00
2019-01-25T00:41:24.278Z,0.00
2019-01-25T00:42:24.231Z,0.00
2019-01-25T00:43:24.213Z,0.00
2019-01-25T00:44:24.187Z,0.00
2019-01-25T00:45:24.177Z,0.00
2019-01-25T00:46:24.155Z,0.00
2019-01-25T00:47:24.112Z,0.00
2019-01-25T00:48:24.088Z,0.00
2019-01-25T00:49:24.061Z,0.00
2019-01-25T00:50:24.047Z,0.00
2019-01-25T00:51:24.028Z,0.00
2019-01-25T00:52:24.012Z,0.00
2019-01-25T00:53:23.962Z,0.00
2019-01-25T00:54:23.944Z,0.00
2019-01-25T00:55:23.917Z,0.00
2019-01-25T00:56:23.890Z,0.00
2019-01-25T00:57:23.865Z,0.00
2019-01-25T00:58:23.862Z,0.00
2019-01-25T00:59:23.817Z,0.00
2019-01-25T01:00:23.795Z,0.00
2019-01-25T01:01:23.770Z,0.00
2019-01-25T01:02:23.766Z,0.00
2019-01-25T01:03:23.717Z,0.00
2019-01-25T01:04:23.695Z,0.00
2019-01-25T01:05:23.674Z,0.00
2019-01-25T01:06:23.646Z,0.00
2019-01-25T01:07:23.619Z,0.00
2019-01-25T01:08:23.615Z,0.00
2019-01-25T01:09:23.569Z,0.00
2019-01-25T01:10:23.553Z,0.00
2019-01-25T01:11:23.524Z,0.00
2019-01-25T01:12:23.500Z,0.00
2019-01-25T01:13:23.477Z,0.00
2019-01-25T01:14:23.469Z,0.00
2019-01-25T01:15:23.452Z,0.00
2019-01-25T01:16:23.400Z,0.00
2019-01-25T01:17:23.378Z,0.00
2019-01-25T01:18:23.349Z,0.00
2019-01-25T01:19:23.325Z,0.00
2019-01-25T01:20:23.321Z,0.00
2019-01-25T01:21:23.279Z,0.00
2019-01-25T01:22:23.255Z,0.00
2019-01-25T01:23:23.231Z,0.00
2019-01-25T01:24:23.202Z,0.00
2019-01-25T01:25:23.187Z,0.00
2019-01-25T01:26:23.163Z,0.00
2019-01-25T01:27:23.129Z,0.00
2019-01-25T01:28:23.109Z,0.00
2019-01-25T01:29:23.097Z,0.00
2019-01-25T01:30:23.075Z,0.00
2019-01-25T01:31:23.047Z,0.00
2019-01-25T01:32:23.023Z,0.00
2019-01-25T01:33:22.980Z,0.00
2019-01-25T01:34:22.954Z,0.00
2019-01-25T01:35:22.933Z,0.00
2019-01-25T01:36:22.911Z,0.00
2019-01-25T01:37:22.882Z,0.00
2019-01-25T01:38:22.883Z,0.00
2019-01-25T01:39:22.834Z,0.00
2019-01-25T01:40:22.814Z,0.00
2019-01-25T01:41:22.782Z,0.00
2019-01-25T01:42:22.756Z,0.00
2019-01-25T01:43:22.752Z,0.00
2019-01-25T01:44:22.712Z,0.00
2019-01-25T01:45:22.686Z,0.00
2019-01-25T01:46:22.660Z,0.00
2019-01-25T01:47:22.654Z,0.00
2019-01-25T01:48:22.612Z,0.00
2019-01-25T01:49:22.587Z,0.00
2019-01-25T01:50:22.565Z,0.00
2019-01-25T01:51:22.537Z,0.00
2019-01-25T01:52:22.519Z,0.00
2019-01-25T01:53:22.503Z,0.00
2019-01-25T01:54:22.470Z,0.00
2019-01-25T01:55:24.410Z,0.00
2019-01-25T01:56:22.412Z,0.00
2019-01-25T01:57:22.938Z,0.00
2019-01-25T01:58:22.364Z,0.00
2019-01-25T01:59:22.356Z,0.00
2019-01-25T02:00:22.908Z,0.00
2019-01-25T02:01:22.305Z,0.00
2019-01-25T02:02:22.266Z,0.00
2019-01-25T02:03:22.239Z,0.00
2019-01-25T02:04:22.218Z,0.00
2019-01-25T02:05:22.198Z,0.00
2019-01-25T02:06:22.166Z,0.00
2019-01-25T02:07:22.160Z,0.00
2019-01-25T02:08:22.117Z,0.00
2019-01-25T02:09:22.091Z,0.00
2019-01-25T02:10:29.020Z,0.00
2019-01-25T02:11:22.039Z,0.00
2019-01-25T02:12:22.019Z,0.00
2019-01-25T02:13:22.019Z,0.00
2019-01-25T02:14:21.966Z,0.00
2019-01-25T02:15:21.945Z,0.00
2019-01-25T02:16:21.923Z,0.00
2019-01-25T02:17:21.897Z,0.00
2019-01-25T02:18:21.870Z,0.00
2019-01-25T02:19:21.865Z,0.00
2019-01-25T02:20:21.822Z,0.00
2019-01-25T02:21:21.795Z,0.00
2019-01-25T02:22:21.773Z,0.00
2019-01-25T02:23:21.769Z,0.00
2019-01-25T02:24:21.722Z,0.00
2019-01-25T02:25:21.700Z,0.00
2019-01-25T02:26:22.440Z,0.00
2019-01-25T02:27:21.703Z,0.00
2019-01-25T02:28:21.629Z,0.00
2019-01-25T02:29:21.613Z,0.00
2019-01-25T02:30:21.581Z,0.00
2019-01-25T02:31:21.569Z,0.00
2019-01-25T02:32:21.527Z,0.00
2019-01-25T02:33:21.500Z,0.00
2019-01-25T02:34:21.503Z,0.00
2019-01-25T02:35:21.466Z,0.00
2019-01-25T02:36:21.442Z,0.00
2019-01-25T02:37:21.401Z,0.00
2019-01-25T02:38:21.379Z,0.00
2019-01-25T02:39:21.351Z,0.00
2019-01-25T02:40:21.328Z,0.00
2019-01-25T02:41:21.324Z,0.00
2019-01-25T02:42:21.278Z,0.00
2019-01-25T02:43:21.251Z,0.00
2019-01-25T02:44:21.234Z,0.00
2019-01-25T02:45:21.203Z,0.00
2019-01-25T02:46:21.178Z,0.00
2019-01-25T02:47:21.171Z,0.00
2019-01-25T02:48:21.128Z,0.00
2019-01-25T02:49:21.103Z,0.00
2019-01-25T02:50:21.087Z,0.00
2019-01-25T02:51:21.063Z,0.00
2019-01-25T02:52:21.049Z,0.00
2019-01-25T02:53:21.003Z,0.00
2019-01-25T02:54:20.980Z,0.00
2019-01-25T02:55:20.951Z,0.00
2019-01-25T02:56:20.937Z,0.00
2019-01-25T02:57:20.932Z,0.00
2019-01-25T02:58:20.895Z,0.00
2019-01-25T02:59:20.855Z,0.00
2019-01-25T03:00:20.829Z,0.00
2019-01-25T03:01:20.805Z,0.00
2019-01-25T03:02:20.781Z,0.00
2019-01-25T03:03:20.751Z,0.00
2019-01-25T03:04:20.766Z,0.00
2019-01-25T03:05:20.704Z,0.00
2019-01-25T03:06:20.680Z,0.00
2019-01-25T03:07:20.657Z,0.00
2019-01-25T03:08:20.630Z,0.00
2019-01-25T03:09:20.608Z,0.00
2019-01-25T03:10:28.185Z,0.00
2019-01-25T03:11:20.559Z,0.00
2019-01-25T03:12:20.542Z,0.00
2019-01-25T03:13:20.511Z,0.00
2019-01-25T03:14:20.503Z,0.00
2019-01-25T03:15:20.463Z,0.00
2019-01-25T03:16:20.433Z,0.00
2019-01-25T03:17:20.428Z,0.00
2019-01-25T03:18:20.388Z,0.00
2019-01-25T03:19:20.358Z,0.00
2019-01-25T03:20:20.333Z,0.00
2019-01-25T03:21:20.336Z,0.00
2019-01-25T03:22:20.286Z,0.00
2019-01-25T03:23:20.259Z,0.00
2019-01-25T03:24:20.234Z,0.00
2019-01-25T03:25:20.210Z,0.00
2019-01-25T03:26:20.183Z,0.00
2019-01-25T03:27:20.176Z,0.00
2019-01-25T03:28:20.132Z,0.00
2019-01-25T03:29:20.107Z,0.00
2019-01-25T03:30:20.086Z,0.00
2019-01-25T03:31:20.061Z,0.00
2019-01-25T03:32:20.059Z,0.00
2019-01-25T03:33:20.038Z,0.00
2019-01-25T03:34:20.000Z,0.00
2019-01-25T03:35:19.965Z,0.00
2019-01-25T03:36:19.940Z,0.00
2019-01-25T03:37:19.915Z,0.00
2019-01-25T03:38:19.907Z,0.00
2019-01-25T03:39:19.863Z,0.00
2019-01-25T03:40:19.836Z,0.00
2019-01-25T03:41:20.412Z,0.00
2019-01-25T03:42:19.793Z,0.00
2019-01-25T03:43:19.784Z,0.00
2019-01-25T03:44:19.746Z,0.00
2019-01-25T03:45:19.717Z,0.00
2019-01-25T03:46:19.695Z,0.00
2019-01-25T03:47:19.669Z,0.00
2019-01-25T03:48:19.663Z,0.00
2019-01-25T03:49:19.620Z,0.00
2019-01-25T03:50:19.596Z,0.00
2019-01-25T03:51:19.580Z,0.00
2019-01-25T03:52:19.550Z,0.00
2019-01-25T03:53:19.542Z,0.00
2019-01-25T03:54:19.499Z,0.00
2019-01-25T03:55:19.474Z,0.00
2019-01-25T03:56:19.467Z,0.00
2019-01-25T03:57:19.423Z,0.00
2019-01-25T03:58:19.412Z,0.00
2019-01-25T03:59:19.374Z,0.00
2019-01-25T04:00:19.346Z,0.00
2019-01-25T04:01:19.339Z,0.00
2019-01-25T04:02:19.302Z,0.00
2019-01-25T04:03:19.282Z,0.00
2019-01-25T04:04:19.253Z,0.00
2019-01-25T04:05:19.231Z,0.00
2019-01-25T04:06:19.225Z,0.00
2019-01-25T04:07:19.182Z,0.00
2019-01-25T04:08:19.155Z,0.00
2019-01-25T04:09:19.133Z,0.00
2019-01-25T04:10:19.100Z,0.00
2019-01-25T04:11:19.081Z,0.00
2019-01-25T04:12:19.072Z,0.00
2019-01-25T04:13:19.036Z,0.00
2019-01-25T04:14:19.009Z,0.00
2019-01-25T04:15:19.912Z,0.00
2019-01-25T04:16:18.957Z,0.00
2019-01-25T04:17:18.949Z,0.00
2019-01-25T04:18:18.923Z,0.00
2019-01-25T04:19:18.885Z,0.00
2019-01-25T04:20:19.425Z,0.00
2019-01-25T04:21:18.837Z,0.00
2019-01-25T04:22:18.843Z,0.00
2019-01-25T04:23:18.784Z,0.00
2019-01-25T04:24:18.763Z,0.00
2019-01-25T04:25:18.739Z,0.00
2019-01-25T04:26:18.717Z,0.00
2019-01-25T04:27:18.691Z,0.00
2019-01-25T04:28:18.685Z,0.00
2019-01-25T04:29:18.637Z,0.00
2019-01-25T04:30:18.615Z,0.00
2019-01-25T04:31:18.588Z,0.00
2019-01-25T04:32:18.564Z,0.00
2019-01-25T04:33:18.547Z,0.00
2019-01-25T04:34:18.535Z,0.00
2019-01-25T04:35:18.490Z,0.00
2019-01-25T04:36:18.471Z,0.00
2019-01-25T04:37:18.441Z,0.00
2019-01-25T04:38:18.425Z,0.00
2019-01-25T04:39:18.412Z,0.00
2019-01-25T04:40:18.368Z,0.00
2019-01-25T04:41:18.369Z,0.00
2019-01-25T04:42:18.331Z,0.00
2019-01-25T04:43:18.312Z,0.00
2019-01-25T04:44:18.273Z,0.00
2019-01-25T04:45:18.248Z,0.00
2019-01-25T04:46:18.227Z,0.00
2019-01-25T04:47:18.202Z,0.00
2019-01-25T04:48:18.195Z,0.00
2019-01-25T04:49:18.152Z,0.00
2019-01-25T04:50:19.274Z,0.00
2019-01-25T04:51:18.123Z,0.00
2019-01-25T04:52:18.084Z,0.00
2019-01-25T04:53:18.065Z,0.00
2019-01-25T04:54:18.047Z,0.00
2019-01-25T04:55:18.022Z,0.00
2019-01-25T04:56:18.020Z,0.00
2019-01-25T04:57:17.954Z,0.00
2019-01-25T04:58:17.933Z,0.00
2019-01-25T04:59:17.910Z,0.00
2019-01-25T05:00:17.884Z,0.00
2019-01-25T05:01:17.872Z,0.00
2019-01-25T05:02:17.854Z,0.00
2019-01-25T05:03:17.811Z,0.00
2019-01-25T05:04:17.787Z,0.00
2019-01-25T05:05:17.765Z,0.00
2019-01-25T05:06:18.444Z,0.00
2019-01-25T05:07:17.732Z,0.00
2019-01-25T05:08:17.710Z,0.00
2019-01-25T05:09:17.666Z,0.00
2019-01-25T05:10:17.643Z,0.00
2019-01-25T05:11:20.051Z,0.00
2019-01-25T05:12:17.591Z,0.00
2019-01-25T05:13:17.582Z,0.00
2019-01-25T05:14:17.565Z,0.00
2019-01-25T05:15:17.522Z,0.00
2019-01-25T05:16:17.500Z,0.00
2019-01-25T05:17:19.415Z,0.00
2019-01-25T05:18:17.461Z,0.00
2019-01-25T05:19:17.435Z,0.00
2019-01-25T05:20:17.398Z,0.00
2019-01-25T05:21:17.377Z,0.00
2019-01-25T05:22:17.355Z,0.00
2019-01-25T05:23:17.335Z,0.00
2019-01-25T05:24:17.316Z,0.00
2019-01-25T05:25:17.274Z,0.00
2019-01-25T05:26:17.253Z,0.00
2019-01-25T05:27:17.228Z,0.00
2019-01-25T05:28:17.200Z,0.00
2019-01-25T05:29:17.202Z,0.00
2019-01-25T05:30:17.154Z,0.00
2019-01-25T05:31:17.128Z,0.00
2019-01-25T05:32:17.125Z,0.00
2019-01-25T05:33:17.918Z,0.00
2019-01-25T05:34:17.055Z,0.00
2019-01-25T05:35:17.043Z,0.00
2019-01-25T05:36:17.019Z,0.00
2019-01-25T05:37:16.982Z,0.00
2019-01-25T05:38:16.956Z,0.00
2019-01-25T05:39:16.933Z,0.00
2019-01-25T05:40:16.905Z,0.00
2019-01-25T05:41:16.911Z,0.00
2019-01-25T05:42:16.858Z,0.00
2019-01-25T05:43:16.833Z,0.00
2019-01-25T05:44:16.807Z,0.00
2019-01-25T05:45:16.786Z,0.00
2019-01-25T05:46:16.759Z,0.00
2019-01-25T05:47:16.756Z,0.00
2019-01-25T05:48:16.711Z,0.00
2019-01-25T05:49:16.680Z,0.00
2019-01-25T05:50:16.676Z,0.00
2019-01-25T05:51:16.635Z,0.00
2019-01-25T05:52:16.630Z,0.00
2019-01-25T05:53:16.590Z,0.00
2019-01-25T05:54:16.562Z,0.00
2019-01-25T05:55:16.536Z,0.00
2019-01-25T05:56:16.546Z,0.00
2019-01-25T05:57:16.492Z,0.00
2019-01-25T05:58:16.480Z,0.00
2019-01-25T05:59:16.441Z,0.00
2019-01-25T06:00:16.419Z,0.00
2019-01-25T06:01:16.392Z,0.00
2019-01-25T06:02:16.383Z,0.00
2019-01-25T06:03:16.377Z,0.00
2019-01-25T06:04:16.319Z,0.00
2019-01-25T06:05:16.296Z,0.00
2019-01-25T06:06:16.266Z,0.00
2019-01-25T06:07:16.243Z,0.00
2019-01-25T06:08:16.233Z,0.00
2019-01-25T06:09:16.190Z,0.00
2019-01-25T06:10:16.171Z,0.00
2019-01-25T06:11:16.145Z,0.00
2019-01-25T06:12:16.120Z,0.00
2019-01-25T06:13:16.170Z,0.00
2019-01-25T06:14:16.073Z,0.00
2019-01-25T06:15:16.056Z,0.00
2019-01-25T06:16:16.021Z,0.00
2019-01-25T06:17:15.997Z,0.00
2019-01-25T06:18:15.974Z,0.00
2019-01-25T06:19:15.974Z,0.00
2019-01-25T06:20:15.922Z,0.00
2019-01-25T06:21:15.901Z,0.00
2019-01-25T06:22:15.885Z,0.00
2019-01-25T06:23:15.855Z,0.00
2019-01-25T06:24:15.849Z,0.00
2019-01-25T06:25:15.807Z,0.00
2019-01-25T06:26:15.781Z,0.00
2019-01-25T06:27:15.753Z,0.00
2019-01-25T06:28:15.729Z,0.00
2019-01-25T06:29:15.709Z,0.00
2019-01-25T06:30:16.861Z,0.00
2019-01-25T06:31:15.670Z,0.00
2019-01-25T06:32:15.636Z,0.00
2019-01-25T06:33:15.609Z,0.00
2019-01-25T06:34:15.601Z,0.00
2019-01-25T06:35:15.561Z,0.00
2019-01-25T06:36:15.559Z,0.00
2019-01-25T06:37:15.528Z,0.00
2019-01-25T06:38:15.488Z,0.00
2019-01-25T06:39:15.461Z,0.00
2019-01-25T06:40:15.437Z,0.00
2019-01-25T06:41:15.411Z,0.00
2019-01-25T06:42:15.419Z,0.00
2019-01-25T06:43:15.363Z,0.00
2019-01-25T06:44:15.339Z,0.00
2019-01-25T06:45:15.329Z,0.00
2019-01-25T06:46:15.288Z,0.00
2019-01-25T06:47:15.278Z,0.00
2019-01-25T06:48:15.261Z,0.00
2019-01-25T06:49:15.216Z,0.00
2019-01-25T06:50:15.189Z,0.00
2019-01-25T06:51:15.167Z,0.00
2019-01-25T06:52:15.163Z,0.00
2019-01-25T06:53:15.115Z,4.00
2019-01-25T06:54:15.126Z,0.00
2019-01-25T06:55:15.067Z,4.00
2019-01-25T06:56:15.089Z,4.00
2019-01-25T06:57:15.025Z,0.00
2019-01-25T06:58:15.017Z,4.00
2019-01-25T06:59:14.971Z,4.00
2019-01-25T07:00:14.953Z,4.00
2019-01-25T07:01:14.924Z,4.00
2019-01-25T07:02:14.897Z,4.00
2019-01-25T07:03:14.893Z,4.00
2019-01-25T07:04:14.846Z,8.00
2019-01-25T07:05:14.873Z,8.00
2019-01-25T07:06:14.818Z,12.00
2019-01-25T07:07:14.776Z,12.00
2019-01-25T07:08:14.770Z,12.00
2019-01-25T07:09:14.740Z,16.00
2019-01-25T07:10:14.701Z,20.00
2019-01-25T07:11:14.701Z,24.00
2019-01-25T07:12:14.650Z,28.00
2019-01-25T07:13:14.630Z,28.00
2019-01-25T07:14:14.635Z,32.00
2019-01-25T07:15:14.658Z,36.00
2019-01-25T07:16:14.650Z,32.00
2019-01-25T07:17:14.664Z,40.00
2019-01-25T07:18:15.454Z,44.00
2019-01-25T07:19:15.492Z,48.00
2019-01-25T07:20:14.659Z,52.00
2019-01-25T07:21:14.435Z,56.00
2019-01-25T07:22:14.441Z,56.00
2019-01-25T07:23:14.387Z,64.00
2019-01-25T07:24:14.360Z,68.00
2019-01-25T07:25:14.338Z,68.00
2019-01-25T07:26:14.332Z,72.00
2019-01-25T07:27:14.287Z,88.00
2019-01-25T07:28:14.281Z,92.00
2019-01-25T07:29:14.308Z,96.00
2019-01-25T07:30:14.214Z,104.00
2019-01-25T07:31:14.188Z,116.00
2019-01-25T07:32:14.167Z,128.00
2019-01-25T07:33:14.175Z,116.00
2019-01-25T07:34:14.121Z,104.00
2019-01-25T07:35:14.099Z,112.00
2019-01-25T07:36:14.077Z,132.00
2019-01-25T07:37:14.090Z,144.00
2019-01-25T07:38:15.001Z,148.00
2019-01-25T07:39:14.013Z,152.00
2019-01-25T07:40:14.929Z,168.00
2019-01-25T07:41:13.962Z,188.00
2019-01-25T07:42:13.937Z,212.00
2019-01-25T07:43:13.913Z,236.00
2019-01-25T07:44:13.893Z,264.00
2019-01-25T07:45:13.850Z,268.00
2019-01-25T07:46:13.828Z,260.00
2019-01-25T07:47:13.833Z,276.00
2019-01-25T07:48:13.793Z,292.00
2019-01-25T07:49:13.802Z,300.00
2019-01-25T07:50:13.747Z,324.00
2019-01-25T07:51:13.720Z,340.00
2019-01-25T07:52:13.682Z,352.00
2019-01-25T07:53:13.654Z,384.00
2019-01-25T07:54:13.644Z,368.00
2019-01-25T07:55:13.613Z,324.00
2019-01-25T07:56:13.587Z,304.00
2019-01-25T07:57:13.564Z,308.00
2019-01-25T07:58:13.529Z,348.00
2019-01-25T07:59:13.532Z,444.00
2019-01-25T08:00:13.520Z,520.00
2019-01-25T08:01:13.525Z,580.00
2019-01-25T08:02:13.437Z,624.00
2019-01-25T08:03:13.421Z,636.00
2019-01-25T08:04:13.397Z,548.00
2019-01-25T08:05:13.362Z,484.00
2019-01-25T08:06:13.340Z,516.00
2019-01-25T08:07:13.332Z,588.00
2019-01-25T08:08:13.290Z,628.00
2019-01-25T08:09:13.280Z,656.00
2019-01-25T08:10:13.245Z,696.00
2019-01-25T08:11:13.212Z,756.00
2019-01-25T08:12:13.192Z,800.00
2019-01-25T08:13:13.191Z,684.00
2019-01-25T08:14:13.210Z,608.00
2019-01-25T08:15:13.126Z,668.00
2019-01-25T08:16:13.094Z,716.00
2019-01-25T08:17:13.075Z,752.00
2019-01-25T08:18:13.074Z,800.00
2019-01-25T08:19:13.023Z,788.00
2019-01-25T08:20:12.997Z,816.00
2019-01-25T08:21:12.969Z,856.00
2019-01-25T08:22:12.979Z,912.00
2019-01-25T08:23:12.944Z,892.00
2019-01-25T08:24:12.907Z,980.00
2019-01-25T08:25:12.873Z,1008.00
2019-01-25T08:26:12.859Z,896.00
2019-01-25T08:27:12.828Z,852.00
2019-01-25T08:28:12.823Z,868.00
2019-01-25T08:29:12.777Z,1056.00
2019-01-25T08:30:12.757Z,1088.00
2019-01-25T08:31:12.745Z,1164.00
2019-01-25T08:32:12.710Z,1220.00
2019-01-25T08:33:12.735Z,1060.00
2019-01-25T08:34:12.689Z,1116.00
2019-01-25T08:35:12.708Z,1180.00
2019-01-25T08:36:12.626Z,1284.00
2019-01-25T08:37:12.589Z,1188.00
2019-01-25T08:38:12.559Z,1156.00
2019-01-25T08:39:12.600Z,1168.00
2019-01-25T08:40:12.525Z,1140.00
2019-01-25T08:41:12.501Z,1156.00
2019-01-25T08:42:15.703Z,1152.00
2019-01-25T08:43:12.449Z,1108.00
2019-01-25T08:44:12.461Z,1076.00
2019-01-25T08:45:12.388Z,1108.00
2019-01-25T08:46:12.393Z,1156.00
2019-01-25T08:47:12.361Z,1212.00
2019-01-25T08:48:12.336Z,1240.00
2019-01-25T08:49:12.295Z,1220.00
2019-01-25T08:50:12.267Z,1184.00
2019-01-25T08:51:12.293Z,1144.00
2019-01-25T08:52:12.261Z,1108.00
2019-01-25T08:53:12.257Z,1132.00
2019-01-25T08:54:14.173Z,1236.00
2019-01-25T08:55:12.166Z,1336.00
2019-01-25T08:56:12.151Z,1400.00
2019-01-25T08:57:12.140Z,1448.00
2019-01-25T08:58:12.078Z,1448.00
2019-01-25T08:59:12.065Z,1676.00
2019-01-25T09:00:12.030Z,1916.00
2019-01-25T09:01:12.026Z,2104.00
2019-01-25T09:02:11.990Z,2424.00
2019-01-25T09:03:11.958Z,2520.00
2019-01-25T09:04:11.937Z,2668.00
2019-01-25T09:05:12.287Z,2756.00
2019-01-25T09:06:11.887Z,2588.00
2019-01-25T09:07:11.876Z,2160.00
2019-01-25T09:08:11.850Z,2016.00
2019-01-25T09:09:11.825Z,1912.00
2019-01-25T09:10:12.496Z,1780.00
2019-01-25T09:11:11.768Z,1776.00
2019-01-25T09:12:11.740Z,1748.00
2019-01-25T09:13:11.733Z,1836.00
2019-01-25T09:14:11.709Z,1988.00
2019-01-25T09:15:11.667Z,2060.00
2019-01-25T09:16:11.663Z,2224.00
2019-01-25T09:17:11.619Z,2064.00
2019-01-25T09:18:11.594Z,1800.00
2019-01-25T09:19:11.590Z,1744.00
2019-01-25T09:20:14.615Z,1744.00
2019-01-25T09:21:11.543Z,1772.00
2019-01-25T09:22:11.519Z,1720.00
2019-01-25T09:23:11.479Z,1740.00
2019-01-25T09:24:11.454Z,1720.00
2019-01-25T09:25:11.439Z,1816.00
2019-01-25T09:26:11.424Z,1968.00
2019-01-25T09:27:11.385Z,1696.00
2019-01-25T09:28:11.372Z,1500.00
2019-01-25T09:29:11.355Z,1420.00
2019-01-25T09:30:11.311Z,1316.00
2019-01-25T09:31:11.301Z,1448.00
2019-01-25T09:32:11.257Z,1356.00
2019-01-25T09:33:11.241Z,1100.00
2019-01-25T09:34:11.230Z,936.00
2019-01-25T09:35:11.192Z,956.00
2019-01-25T09:36:11.164Z,1084.00
2019-01-25T09:37:11.142Z,1060.00
2019-01-25T09:38:11.117Z,1424.00
2019-01-25T09:39:11.101Z,1540.00
2019-01-25T09:40:11.087Z,1588.00
2019-01-25T09:41:11.057Z,1648.00
2019-01-25T09:42:11.027Z,1472.00
2019-01-25T09:43:11.005Z,1676.00
2019-01-25T09:44:10.981Z,1812.00
2019-01-25T09:45:10.956Z,1832.00
2019-01-25T09:46:10.941Z,1968.00
2019-01-25T09:47:10.904Z,2024.00
2019-01-25T09:48:10.891Z,1984.00
2019-01-25T09:49:10.869Z,1948.00
2019-01-25T09:50:10.855Z,1936.00
2019-01-25T09:51:10.827Z,1876.00
2019-01-25T09:52:10.783Z,2076.00
2019-01-25T09:53:10.762Z,2320.00
2019-01-25T09:54:10.736Z,2116.00
2019-01-25T09:55:10.718Z,2452.00
2019-01-25T09:56:10.690Z,2496.00
2019-01-25T09:57:10.682Z,2252.00
2019-01-25T09:58:10.637Z,2376.00
2019-01-25T09:59:10.618Z,2224.00
2019-01-25T10:00:10.596Z,1936.00
2019-01-25T10:01:10.571Z,1736.00
2019-01-25T10:02:10.564Z,1536.00
2019-01-25T10:03:10.529Z,1428.00
2019-01-25T10:04:10.497Z,1476.00
2019-01-25T10:05:10.478Z,1676.00
2019-01-25T10:06:10.455Z,2092.00
2019-01-25T10:07:10.427Z,2492.00
2019-01-25T10:08:10.427Z,2840.00
2019-01-25T10:09:10.399Z,2748.00
2019-01-25T10:10:10.352Z,2688.00
2019-01-25T10:11:10.331Z,2464.00
2019-01-25T10:12:10.306Z,2468.00
2019-01-25T10:13:10.280Z,2508.00
2019-01-25T10:14:10.276Z,2652.00
2019-01-25T10:15:10.245Z,3112.00
2019-01-25T10:16:10.218Z,2932.00
2019-01-25T10:17:10.209Z,2720.00
2019-01-25T10:18:10.166Z,2540.00
2019-01-25T10:19:10.161Z,2672.00
2019-01-25T10:20:10.118Z,2700.00
2019-01-25T10:21:10.094Z,2776.00
2019-01-25T10:22:10.069Z,2608.00
2019-01-25T10:23:10.051Z,2340.00
2019-01-25T10:24:10.020Z,2460.00
2019-01-25T10:25:10.011Z,2276.00
2019-01-25T10:26:09.990Z,2188.00
2019-01-25T10:27:09.966Z,2180.00
2019-01-25T10:28:09.943Z,2212.00
2019-01-25T10:29:09.906Z,2496.00
2019-01-25T10:30:09.884Z,2444.00
2019-01-25T10:31:09.855Z,2284.00
2019-01-25T10:32:09.857Z,2168.00
2019-01-25T10:33:09.808Z,2240.00
2019-01-25T10:34:09.791Z,2196.00
2019-01-25T10:35:09.766Z,2164.00
2019-01-25T10:36:09.740Z,2156.00
2019-01-25T10:37:09.728Z,2328.00
2019-01-25T10:38:09.697Z,2336.00
2019-01-25T10:39:09.666Z,2368.00
2019-01-25T10:40:09.651Z,2208.00
2019-01-25T10:41:09.625Z,2028.00
2019-01-25T10:42:09.620Z,2144.00
2019-01-25T10:43:09.575Z,2196.00
2019-01-25T10:44:09.552Z,2428.00
2019-01-25T10:45:09.536Z,2536.00
2019-01-25T10:46:09.508Z,2700.00
2019-01-25T10:47:09.485Z,2792.00
2019-01-25T10:48:09.477Z,2784.00
2019-01-25T10:49:09.433Z,2628.00
2019-01-25T10:50:09.405Z,2608.00
2019-01-25T10:51:09.382Z,2496.00
2019-01-25T10:52:09.366Z,2560.00
2019-01-25T10:53:09.341Z,2512.00
2019-01-25T10:54:09.346Z,2472.00
2019-01-25T10:55:09.290Z,2400.00
2019-01-25T10:56:09.269Z,2108.00
2019-01-25T10:57:09.256Z,2052.00
2019-01-25T10:58:09.239Z,2284.00
2019-01-25T10:59:09.197Z,2312.00
2019-01-25T11:00:09.181Z,2428.00
2019-01-25T11:01:09.155Z,2540.00
2019-01-25T11:02:09.133Z,2564.00
2019-01-25T11:03:09.122Z,2528.00
2019-01-25T11:04:11.552Z,2564.00
2019-01-25T11:05:09.052Z,2564.00
2019-01-25T11:06:09.033Z,2468.00
2019-01-25T11:07:09.007Z,2508.00
2019-01-25T11:08:08.992Z,2844.00
2019-01-25T11:09:08.978Z,3176.00
2019-01-25T11:10:08.938Z,3388.00
2019-01-25T11:11:08.945Z,3416.00
2019-01-25T11:12:08.895Z,3148.00
2019-01-25T11:13:08.866Z,2888.00
2019-01-25T11:14:08.853Z,2620.00
2019-01-25T11:15:08.819Z,3160.00
2019-01-25T11:16:11.945Z,3756.00
2019-01-25T11:17:08.789Z,3580.00
2019-01-25T11:18:08.744Z,3824.00
2019-01-25T11:19:08.733Z,4336.00
2019-01-25T11:20:08.719Z,4948.00
2019-01-25T11:21:08.696Z,3368.00
2019-01-25T11:22:08.656Z,3752.00
2019-01-25T11:23:08.633Z,3404.00
2019-01-25T11:24:08.607Z,3496.00
2019-01-25T11:25:08.587Z,3764.00
2019-01-25T11:26:08.586Z,2544.00
2019-01-25T11:27:08.556Z,3072.00
2019-01-25T11:28:08.513Z,3696.00
2019-01-25T11:29:08.502Z,3404.00
2019-01-25T11:30:08.470Z,2036.00
2019-01-25T11:31:08.478Z,2048.00
2019-01-25T11:32:08.425Z,2684.00
2019-01-25T11:33:08.397Z,3284.00
2019-01-25T11:34:08.411Z,3016.00
2019-01-25T11:35:08.345Z,1948.00
2019-01-25T11:36:08.334Z,2004.00
2019-01-25T11:37:08.339Z,3492.00
2019-01-25T11:38:08.282Z,3920.00
2019-01-25T11:39:08.267Z,3968.00
2019-01-25T11:40:08.232Z,3848.00
2019-01-25T11:41:08.215Z,3996.00
2019-01-25T11:42:08.199Z,3752.00
2019-01-25T11:43:09.185Z,3808.00
2019-01-25T11:44:08.146Z,4128.00
2019-01-25T11:45:08.169Z,3864.00
2019-01-25T11:46:08.095Z,3464.00
2019-01-25T11:47:08.074Z,3396.00
2019-01-25T11:48:08.051Z,3636.00
2019-01-25T11:49:08.094Z,3500.00
2019-01-25T11:50:08.027Z,3388.00
2019-01-25T11:51:07.991Z,3712.00
2019-01-25T11:52:07.960Z,4888.00
2019-01-25T11:53:07.938Z,5428.00
2019-01-25T11:54:07.982Z,6280.00
2019-01-25T11:55:07.904Z,5732.00
2019-01-25T11:56:07.861Z,5700.00
2019-01-25T11:57:07.842Z,6128.00
2019-01-25T11:58:07.837Z,6356.00
2019-01-25T11:59:07.799Z,6424.00
2019-01-25T12:00:07.769Z,6116.00
2019-01-25T12:01:07.768Z,5560.00
2019-01-25T12:02:07.738Z,5120.00
2019-01-25T12:03:07.699Z,5032.00
2019-01-25T12:04:07.690Z,5256.00
2019-01-25T12:05:07.669Z,5236.00
2019-01-25T12:06:07.652Z,5124.00
2019-01-25T12:07:07.612Z,4748.00
2019-01-25T12:08:07.595Z,4732.00
2019-01-25T12:09:07.570Z,4820.00
2019-01-25T12:10:07.544Z,5056.00
2019-01-25T12:11:07.542Z,5684.00
2019-01-25T12:12:07.500Z,6088.00
2019-01-25T12:13:07.478Z,7000.00
2019-01-25T12:14:07.470Z,7824.00
2019-01-25T12:15:07.435Z,8024.00
2019-01-25T12:16:07.425Z,8796.00
2019-01-25T12:17:07.385Z,9688.00
2019-01-25T12:18:07.363Z,8500.00
2019-01-25T12:19:07.345Z,8516.00
2019-01-25T12:20:07.319Z,7536.00
2019-01-25T12:21:07.299Z,7728.00
2019-01-25T12:22:07.290Z,6868.00
2019-01-25T12:23:07.251Z,6420.00
2019-01-25T12:24:07.229Z,6252.00
2019-01-25T12:25:07.229Z,6660.00
2019-01-25T12:26:07.183Z,6680.00
2019-01-25T12:27:07.177Z,5964.00
2019-01-25T12:28:07.159Z,5628.00
2019-01-25T12:29:07.123Z,5400.00
2019-01-25T12:30:07.121Z,5196.00
2019-01-25T12:31:07.071Z,5192.00
2019-01-25T12:32:07.058Z,5636.00
2019-01-25T12:33:07.029Z,5740.00
2019-01-25T12:34:07.024Z,5740.00
2019-01-25T12:35:07.504Z,6008.00
2019-01-25T12:36:06.959Z,6140.00
2019-01-25T12:37:06.943Z,5804.00
2019-01-25T12:38:06.974Z,5636.00
2019-01-25T12:39:06.894Z,5872.00
2019-01-25T12:40:06.882Z,6072.00
2019-01-25T12:41:06.853Z,5940.00
2019-01-25T12:42:06.842Z,5956.00
2019-01-25T12:43:06.803Z,5940.00
2019-01-25T12:44:06.803Z,6012.00
2019-01-25T12:45:06.761Z,6080.00
2019-01-25T12:46:06.740Z,5928.00
2019-01-25T12:47:06.718Z,5620.00